createdAt,value
2018-09-13T00:00:00.240Z,10.77
2018-09-13T00:02:28.817Z,12.83
2018-09-13T00:04:57.340Z,11.70
2018-09-13T00:07:25.866Z,10.27
2018-09-13T00:09:54.464Z,13.20
2018-09-13T00:12:22.989Z,11.30
2018-09-13T00:14:51.548Z,11.73
2018-09-13T00:17:20.078Z,11.30
2018-09-13T00:19:48.633Z,13.30
2018-09-13T00:22:17.788Z,11.07
2018-09-13T00:24:46.309Z,10.60
2018-09-13T00:27:14.848Z,11.53
2018-09-13T00:29:43.415Z,15.70
2018-09-13T00:32:11.914Z,10.50
2018-09-13T00:34:40.425Z,13.37
2018-09-13T00:37:08.982Z,10.83
2018-09-13T00:39:37.511Z,12.20
2018-09-13T00:42:06.056Z,10.40
2018-09-13T00:44:34.572Z,10.90
2018-09-13T00:47:03.161Z,10.37
2018-09-13T00:49:31.892Z,10.57
2018-09-13T00:52:00.388Z,10.57
2018-09-13T00:54:28.900Z,10.87
2018-09-13T00:56:57.604Z,10.33
2018-09-13T00:59:26.486Z,11.17
2018-09-13T01:01:55.020Z,12.43
2018-09-13T01:04:23.558Z,11.17
2018-09-13T01:06:52.085Z,12.93
2018-09-13T01:09:20.945Z,11.50
2018-09-13T01:11:49.472Z,10.90
2018-09-13T01:14:18.038Z,11.17
2018-09-13T01:16:46.590Z,12.03
2018-09-13T01:19:16.196Z,11.60
2018-09-13T01:21:44.807Z,11.17
2018-09-13T01:24:13.319Z,12.23
2018-09-13T01:26:42.255Z,11.97
2018-09-13T01:29:10.800Z,11.70
2018-09-13T01:31:39.589Z,11.77
2018-09-13T01:34:08.098Z,14.20
2018-09-13T01:36:36.642Z,16.80
2018-09-13T01:39:07.738Z,13.67
2018-09-13T01:41:36.560Z,12.70
2018-09-13T01:44:05.144Z,12.43
2018-09-13T01:46:33.689Z,12.27
2018-09-13T01:49:02.190Z,11.97
2018-09-13T01:51:31.044Z,13.00
2018-09-13T01:54:00.143Z,11.67
2018-09-13T01:56:28.647Z,12.47
2018-09-13T01:58:57.196Z,12.40
2018-09-13T02:01:25.752Z,11.87
2018-09-13T02:03:54.276Z,11.20
2018-09-13T02:06:22.777Z,11.27
2018-09-13T02:08:51.537Z,12.07
2018-09-13T02:11:20.092Z,12.10
2018-09-13T02:13:48.614Z,12.07
2018-09-13T02:16:17.170Z,12.77
2018-09-13T02:18:45.821Z,12.17
2018-09-13T02:21:14.401Z,13.17
2018-09-13T02:23:43.300Z,12.33
2018-09-13T02:26:11.856Z,12.03
2018-09-13T02:28:40.733Z,12.80
2018-09-13T02:31:09.265Z,12.33
2018-09-13T02:33:37.777Z,11.83
2018-09-13T02:36:06.359Z,13.03
2018-09-13T02:38:34.907Z,13.50
2018-09-13T02:41:03.516Z,12.20
2018-09-13T02:43:32.047Z,13.63
2018-09-13T02:46:00.565Z,14.73
2018-09-13T02:48:29.146Z,13.50
2018-09-13T02:50:57.688Z,13.43
2018-09-13T02:53:26.195Z,13.33
2018-09-13T02:55:54.732Z,12.80
2018-09-13T02:58:23.258Z,13.30
2018-09-13T03:00:51.784Z,17.57
2018-09-13T03:03:20.388Z,13.27
2018-09-13T03:05:48.924Z,14.90
2018-09-13T03:08:17.548Z,14.87
2018-09-13T03:10:46.270Z,16.63
2018-09-13T03:13:14.780Z,14.83
2018-09-13T03:15:43.289Z,16.83
2018-09-13T03:18:11.815Z,15.40
2018-09-13T03:20:40.390Z,15.07
2018-09-13T03:23:08.929Z,17.07
2018-09-13T03:25:37.432Z,16.53
2018-09-13T03:28:06.028Z,16.30
2018-09-13T03:30:34.600Z,18.20
2018-09-13T03:33:03.168Z,16.80
2018-09-13T03:35:31.804Z,17.27
2018-09-13T03:38:00.307Z,18.40
2018-09-13T03:40:28.837Z,18.40
2018-09-13T03:42:57.403Z,18.00
2018-09-13T03:45:26.084Z,17.57
2018-09-13T03:47:54.607Z,17.93
2018-09-13T03:50:23.128Z,19.77
2018-09-13T03:52:51.673Z,18.97
2018-09-13T03:55:20.240Z,18.17
2018-09-13T03:57:48.787Z,19.90
2018-09-13T04:00:17.293Z,18.90
2018-09-13T04:02:45.840Z,20.10
2018-09-13T04:05:14.560Z,19.23
2018-09-13T04:07:43.095Z,17.87
2018-09-13T04:10:11.632Z,18.87
2018-09-13T04:12:40.164Z,21.13
2018-09-13T04:15:08.799Z,20.20
2018-09-13T04:17:37.487Z,21.63
2018-09-13T04:20:06.047Z,21.13
2018-09-13T04:22:34.628Z,21.47
2018-09-13T04:25:03.170Z,21.23
2018-09-13T04:27:31.731Z,21.93
2018-09-13T04:30:00.256Z,24.33
2018-09-13T04:32:28.827Z,21.33
2018-09-13T04:34:57.372Z,22.13
2018-09-13T04:37:26.264Z,21.80
2018-09-13T04:39:54.784Z,22.63
2018-09-13T04:42:23.286Z,23.57
2018-09-13T04:44:51.831Z,23.03
2018-09-13T04:47:20.339Z,21.40
2018-09-13T04:49:49.613Z,23.13
2018-09-13T04:52:18.209Z,22.60
2018-09-13T04:54:46.732Z,20.87
2018-09-13T04:57:15.567Z,23.00
2018-09-13T04:59:44.138Z,23.50
2018-09-13T05:02:12.667Z,22.67
2018-09-13T05:04:41.188Z,23.97
2018-09-13T05:07:09.722Z,22.57
2018-09-13T05:09:38.257Z,20.53
2018-09-13T05:12:06.785Z,21.83
2018-09-13T05:14:35.316Z,20.73
2018-09-13T05:17:04.140Z,20.43
2018-09-13T05:19:32.639Z,22.10
2018-09-13T05:22:01.149Z,20.27
2018-09-13T05:24:29.888Z,18.17
2018-09-13T05:26:58.380Z,17.40
2018-09-13T05:29:26.931Z,18.57
2018-09-13T05:31:55.492Z,18.37
2018-09-13T05:34:24.058Z,18.27
2018-09-13T05:36:52.731Z,19.03
2018-09-13T05:39:21.284Z,20.27
2018-09-13T05:41:49.801Z,18.57
2018-09-13T05:44:18.347Z,20.37
2018-09-13T05:46:47.246Z,21.37
2018-09-13T05:49:15.756Z,17.47
2018-09-13T05:51:44.263Z,19.97
2018-09-13T05:54:12.800Z,22.03
2018-09-13T05:56:41.297Z,19.87
2018-09-13T05:59:09.815Z,20.20
2018-09-13T06:01:38.632Z,20.17
2018-09-13T06:04:07.151Z,20.33
2018-09-13T06:06:35.663Z,20.50
2018-09-13T06:09:05.342Z,18.23
2018-09-13T06:11:33.854Z,19.50
2018-09-13T06:14:02.409Z,21.60
2018-09-13T06:16:30.975Z,19.67
2018-09-13T06:18:59.487Z,19.23
2018-09-13T06:21:28.024Z,18.73
2018-09-13T06:23:56.584Z,19.83
2018-09-13T06:26:25.227Z,20.93
2018-09-13T06:28:53.801Z,19.33
2018-09-13T06:31:22.351Z,19.43
2018-09-13T06:33:50.900Z,17.70
2018-09-13T06:36:19.471Z,17.73
2018-09-13T06:38:48.022Z,19.37
2018-09-13T06:41:16.543Z,19.50
2018-09-13T06:43:45.059Z,19.67
2018-09-13T06:46:13.610Z,19.30
2018-09-13T06:48:42.515Z,20.20
2018-09-13T06:51:11.017Z,20.17
2018-09-13T06:53:39.526Z,19.87
2018-09-13T06:56:08.089Z,19.30
2018-09-13T06:58:36.877Z,19.60
2018-09-13T07:01:05.463Z,21.77
2018-09-13T07:03:34.014Z,21.60
2018-09-13T07:06:02.643Z,19.87
2018-09-13T07:08:31.160Z,20.80
2018-09-13T07:10:59.733Z,20.63
2018-09-13T07:13:28.296Z,21.13
2018-09-13T07:15:56.846Z,19.73
2018-09-13T07:18:25.376Z,19.73
2018-09-13T07:20:53.912Z,20.13
2018-09-13T07:23:22.417Z,19.47
2018-09-13T07:25:50.994Z,17.53
2018-09-13T07:28:19.502Z,18.23
2018-09-13T07:30:48.095Z,20.23
2018-09-13T07:33:16.580Z,20.73
2018-09-13T07:35:45.191Z,19.80
2018-09-13T07:38:14.374Z,19.43
2018-09-13T07:40:43.054Z,19.43
2018-09-13T07:43:11.761Z,21.00
2018-09-13T07:45:40.307Z,20.23
2018-09-13T07:48:08.897Z,19.23
2018-09-13T07:50:37.413Z,20.27
2018-09-13T07:53:06.173Z,20.23
2018-09-13T07:55:35.029Z,18.50
2018-09-13T07:58:03.607Z,17.60
2018-09-13T08:00:32.125Z,21.07
2018-09-13T08:03:00.680Z,18.53
2018-09-13T08:05:29.243Z,17.83
2018-09-13T08:07:57.913Z,18.23
2018-09-13T08:10:26.778Z,17.77
2018-09-13T08:12:55.294Z,15.00
2018-09-13T08:15:24.340Z,19.30
2018-09-13T08:17:53.126Z,18.10
2018-09-13T08:20:22.055Z,18.17
2018-09-13T08:22:50.726Z,18.75
2018-09-13T08:25:19.643Z,17.17
2018-09-13T08:27:48.677Z,18.47
2018-09-13T08:30:17.249Z,16.93
2018-09-13T08:32:45.759Z,15.40
2018-09-13T08:35:14.458Z,17.93
2018-09-13T08:37:42.953Z,15.80
2018-09-13T08:40:11.476Z,20.00
2018-09-13T08:42:40.299Z,16.47
2018-09-13T08:45:08.876Z,15.53
2018-09-13T08:47:37.448Z,17.40
2018-09-13T08:50:06.038Z,16.40
2018-09-13T08:52:34.563Z,15.50
2018-09-13T08:55:03.178Z,14.07
2018-09-13T08:57:31.660Z,15.93
2018-09-13T09:00:00.181Z,16.77
2018-09-13T09:02:28.748Z,15.47
2018-09-13T09:04:57.285Z,15.13
2018-09-13T09:07:25.836Z,16.13
2018-09-13T09:09:54.382Z,14.90
2018-09-13T09:12:22.890Z,13.07
2018-09-13T09:14:51.405Z,13.07
2018-09-13T09:17:20.201Z,14.93
2018-09-13T09:19:48.728Z,14.77
2018-09-13T09:22:17.250Z,14.33
2018-09-13T09:24:45.812Z,14.40
2018-09-13T09:27:14.338Z,15.60
2018-09-13T09:29:43.219Z,14.07
2018-09-13T09:32:11.913Z,15.43
2018-09-13T09:34:40.469Z,13.40
2018-09-13T09:37:09.023Z,14.07
2018-09-13T09:39:37.557Z,14.57
2018-09-13T09:42:06.177Z,13.50
2018-09-13T09:44:34.690Z,10.83
2018-09-13T09:47:03.208Z,14.30
2018-09-13T09:49:31.770Z,13.27
2018-09-13T09:52:00.574Z,13.50
2018-09-13T09:54:28.983Z,14.20
2018-09-13T09:56:57.531Z,12.97
2018-09-13T09:59:26.032Z,14.13
2018-09-13T10:01:59.874Z,15.73
2018-09-13T10:04:28.512Z,14.53
2018-09-13T10:06:57.684Z,14.10
2018-09-13T10:09:26.202Z,15.73
2018-09-13T10:11:54.984Z,12.10
2018-09-13T10:14:23.767Z,10.90
2018-09-13T10:16:57.669Z,13.20
2018-09-13T10:19:31.639Z,10.93
2018-09-13T10:22:12.456Z,13.17
2018-09-13T10:24:46.200Z,12.27
2018-09-13T10:27:19.952Z,11.43
2018-09-13T10:29:53.868Z,11.97
2018-09-13T10:32:27.677Z,13.40
2018-09-13T10:35:01.423Z,13.30
2018-09-13T10:37:35.287Z,15.50
2018-09-13T10:40:09.308Z,10.93
2018-09-13T10:42:43.125Z,11.10
2018-09-13T10:45:17.115Z,16.07
2018-09-13T10:47:56.920Z,10.63
2018-09-13T10:50:27.447Z,11.43
2018-09-13T10:53:00.074Z,11.90
2018-09-13T10:55:29.101Z,11.33
2018-09-13T10:57:57.693Z,12.73
2018-09-13T11:00:26.346Z,11.47
2018-09-13T11:02:54.974Z,11.23
2018-09-13T11:05:23.577Z,11.50
2018-09-13T11:07:52.130Z,10.07
2018-09-13T11:10:21.037Z,10.73
2018-09-13T11:12:53.128Z,11.40
2018-09-13T11:15:33.928Z,12.37
2018-09-13T11:18:03.610Z,10.77
2018-09-13T11:20:32.815Z,10.50
2018-09-13T11:23:01.434Z,11.03
2018-09-13T11:25:30.047Z,12.67
2018-09-13T11:27:58.848Z,11.13
2018-09-13T11:30:27.735Z,12.77
2018-09-13T11:32:56.266Z,10.43
2018-09-13T11:35:24.787Z,8.33
2018-09-13T11:37:53.328Z,9.30
2018-09-13T11:40:21.902Z,10.97
2018-09-13T11:42:50.449Z,12.07
2018-09-13T11:45:19.059Z,10.60
2018-09-13T11:47:47.610Z,12.40
2018-09-13T11:50:17.182Z,10.48
2018-09-13T11:52:45.683Z,8.93
2018-09-13T11:55:14.252Z,9.40
2018-09-13T11:57:42.792Z,10.25
2018-09-13T12:00:11.335Z,15.58
2018-09-13T12:02:39.869Z,9.43
2018-09-13T12:05:08.440Z,8.83
2018-09-13T12:07:36.956Z,12.47
2018-09-13T12:10:06.353Z,9.85
2018-09-13T12:12:34.880Z,8.80
2018-09-13T12:15:03.688Z,9.65
2018-09-13T12:17:32.304Z,8.43
2018-09-13T12:20:00.789Z,8.45
2018-09-13T12:22:29.393Z,8.63
2018-09-13T12:24:57.880Z,8.60
2018-09-13T12:27:26.480Z,10.05
2018-09-13T12:29:55.021Z,9.10
2018-09-13T12:32:23.555Z,10.53
2018-09-13T12:34:52.083Z,8.87
2018-09-13T12:37:20.610Z,9.57
2018-09-13T12:39:49.332Z,7.63
2018-09-13T12:42:17.843Z,10.17
2018-09-13T12:44:46.347Z,10.90
2018-09-13T12:47:14.972Z,12.20
2018-09-13T12:49:43.593Z,13.87
2018-09-13T12:52:12.455Z,8.17
2018-09-13T12:54:41.063Z,7.57
2018-09-13T12:57:09.691Z,8.40
2018-09-13T12:59:38.201Z,9.97
2018-09-13T13:02:06.713Z,9.40
2018-09-13T13:04:35.239Z,7.67
2018-09-13T13:07:04.111Z,8.23
2018-09-13T13:09:32.640Z,7.70
2018-09-13T13:12:01.168Z,9.80
2018-09-13T13:14:29.752Z,8.87
2018-09-13T13:16:58.589Z,9.20
2018-09-13T13:19:27.056Z,9.27
2018-09-13T13:21:55.612Z,9.50
2018-09-13T13:24:24.166Z,11.10
2018-09-13T13:26:52.714Z,9.67
2018-09-13T13:29:21.312Z,10.47
2018-09-13T13:31:49.816Z,7.93
2018-09-13T13:34:18.364Z,8.77
2018-09-13T13:36:46.889Z,9.77
2018-09-13T13:39:15.557Z,11.20
2018-09-13T13:41:44.454Z,11.20
2018-09-13T13:44:13.351Z,11.93
2018-09-13T13:46:42.035Z,11.47
2018-09-13T13:49:10.604Z,10.90
2018-09-13T13:51:40.179Z,12.23
2018-09-13T13:54:08.721Z,12.87
2018-09-13T13:56:37.276Z,18.30
2018-09-13T13:59:05.832Z,14.90
2018-09-13T14:01:35.429Z,15.03
2018-09-13T14:04:03.962Z,17.03
2018-09-13T14:06:32.476Z,18.43
2018-09-13T14:09:01.044Z,21.67
2018-09-13T14:11:29.885Z,21.60
2018-09-13T14:13:58.702Z,22.20
2018-09-13T14:16:27.354Z,28.70
2018-09-13T14:18:56.009Z,26.67
2018-09-13T14:21:24.518Z,26.87
2018-09-13T14:23:53.184Z,29.83
2018-09-13T14:26:21.875Z,20.80
2018-09-13T14:28:50.924Z,28.00
2018-09-13T14:31:19.692Z,30.13
2018-09-13T14:33:48.696Z,26.77
2018-09-13T14:36:17.589Z,28.10
2018-09-13T14:38:46.699Z,32.57
2018-09-13T14:41:15.434Z,27.63
2018-09-13T14:43:44.795Z,33.30
2018-09-13T14:46:13.685Z,25.87
2018-09-13T14:48:42.187Z,27.13
2018-09-13T14:51:11.130Z,25.77
2018-09-13T14:53:39.697Z,27.40
2018-09-13T14:56:09.198Z,26.07
2018-09-13T14:58:37.946Z,25.17
2018-09-13T15:01:06.844Z,23.90
2018-09-13T15:03:35.457Z,24.13
2018-09-13T15:06:04.017Z,23.80
2018-09-13T15:08:32.525Z,23.03
2018-09-13T15:11:01.099Z,23.07
2018-09-13T15:13:29.682Z,21.53
2018-09-13T15:15:58.291Z,21.37
2018-09-13T15:18:26.821Z,20.50
2018-09-13T15:20:55.324Z,20.23
2018-09-13T15:23:23.949Z,20.00
2018-09-13T15:25:52.490Z,20.07
2018-09-13T15:28:21.017Z,20.53
2018-09-13T15:30:49.710Z,23.60
2018-09-13T15:33:18.203Z,24.77
2018-09-13T15:35:46.748Z,22.37
2018-09-13T15:38:15.253Z,23.47
2018-09-13T15:40:43.825Z,22.80
2018-09-13T15:43:12.368Z,22.77
2018-09-13T15:45:40.896Z,24.30
2018-09-13T15:48:09.473Z,24.50
2018-09-13T15:50:37.993Z,23.63
2018-09-13T15:53:06.658Z,26.83
2018-09-13T15:55:35.206Z,21.83
2018-09-13T15:58:03.768Z,21.23
2018-09-13T16:00:32.551Z,21.40
2018-09-13T16:03:01.071Z,19.70
2018-09-13T16:05:30.487Z,20.53
2018-09-13T16:07:59.044Z,22.20
2018-09-13T16:10:27.587Z,21.10
2018-09-13T16:12:56.171Z,21.73
2018-09-13T16:15:24.701Z,22.53
2018-09-13T16:17:53.263Z,24.43
2018-09-13T16:20:21.788Z,22.53
2018-09-13T16:22:50.333Z,23.47
2018-09-13T16:25:18.916Z,24.47
2018-09-13T16:27:47.537Z,20.47
2018-09-13T16:30:16.060Z,23.80
2018-09-13T16:32:44.637Z,20.53
2018-09-13T16:35:13.289Z,20.37
2018-09-13T16:37:47.100Z,18.53
2018-09-13T16:40:20.851Z,18.80
2018-09-13T16:42:54.900Z,16.90
2018-09-13T16:45:30.872Z,18.07
2018-09-13T16:48:01.439Z,18.43
2018-09-13T16:50:30.065Z,16.43
2018-09-13T16:52:58.671Z,15.43
2018-09-13T16:55:27.286Z,14.40
2018-09-13T16:57:55.816Z,15.00
2018-09-13T17:00:25.374Z,15.13
2018-09-13T17:02:54.220Z,14.57
2018-09-13T17:05:22.975Z,13.77
2018-09-13T17:07:51.509Z,14.37
2018-09-13T17:10:20.037Z,13.80
2018-09-13T17:12:48.601Z,16.03
2018-09-13T17:15:17.901Z,14.27
2018-09-13T17:17:46.448Z,15.03
2018-09-13T17:20:15.057Z,16.20
2018-09-13T17:22:43.754Z,17.00
2018-09-13T17:25:12.319Z,17.57
2018-09-13T17:27:40.896Z,18.30
2018-09-13T17:30:09.766Z,20.30
2018-09-13T17:32:38.278Z,20.57
2018-09-13T17:35:06.896Z,21.60
2018-09-13T17:37:35.435Z,21.50
2018-09-13T17:40:04.025Z,20.03
2018-09-13T17:42:32.643Z,20.57
2018-09-13T17:45:01.197Z,22.10
2018-09-13T17:47:30.452Z,24.40
2018-09-13T17:49:59.676Z,25.17
2018-09-13T17:52:28.527Z,25.07
2018-09-13T17:54:57.056Z,24.60
2018-09-13T17:57:25.603Z,27.20
2018-09-13T17:59:54.145Z,30.60
2018-09-13T18:02:22.701Z,28.43
2018-09-13T18:04:51.269Z,27.73
2018-09-13T18:07:19.813Z,29.87
2018-09-13T18:09:48.382Z,32.40
2018-09-13T18:12:16.928Z,29.73
2018-09-13T18:14:45.559Z,27.67
2018-09-13T18:17:14.078Z,27.53
2018-09-13T18:19:42.664Z,25.37
2018-09-13T18:22:11.184Z,26.80
2018-09-13T18:24:39.746Z,31.77
2018-09-13T18:27:08.302Z,29.00
2018-09-13T18:29:36.846Z,27.73
2018-09-13T18:32:05.426Z,32.70
2018-09-13T18:34:34.003Z,31.00
2018-09-13T18:37:02.600Z,33.53
2018-09-13T18:39:31.858Z,30.30
2018-09-13T18:42:00.385Z,31.53
2018-09-13T18:44:28.937Z,32.43
2018-09-13T18:46:57.448Z,36.17
2018-09-13T18:49:26.152Z,34.50
2018-09-13T18:51:54.756Z,33.60
2018-09-13T18:54:23.413Z,38.93
2018-09-13T18:56:51.869Z,31.63
2018-09-13T18:59:20.407Z,28.63
2018-09-13T19:01:49.249Z,35.97
2018-09-13T19:04:17.816Z,39.70
2018-09-13T19:06:46.353Z,34.83
2018-09-13T19:09:14.883Z,31.90
2018-09-13T19:11:43.635Z,40.57
2018-09-13T19:14:12.164Z,37.60
2018-09-13T19:16:40.711Z,40.87
2018-09-13T19:19:09.267Z,41.33
2018-09-13T19:21:37.811Z,35.03
2018-09-13T19:24:06.610Z,34.17
2018-09-13T19:26:35.745Z,34.27
2018-09-13T19:29:04.289Z,41.13
2018-09-13T19:31:33.790Z,37.30
2018-09-13T19:34:02.353Z,35.27
2018-09-13T19:36:31.223Z,36.33
2018-09-13T19:38:59.748Z,41.33
2018-09-13T19:41:29.373Z,37.13
2018-09-13T19:43:57.890Z,33.53
2018-09-13T19:46:26.565Z,33.53
2018-09-13T19:48:55.160Z,40.20
2018-09-13T19:51:23.907Z,39.00
2018-09-13T19:53:52.422Z,36.97
2018-09-13T19:56:21.567Z,40.10
2018-09-13T19:58:50.109Z,37.07
2018-09-13T20:01:18.901Z,39.77
2018-09-13T20:03:47.524Z,43.70
2018-09-13T20:06:16.156Z,41.47
2018-09-13T20:08:44.728Z,32.77
2018-09-13T20:11:13.403Z,32.97
2018-09-13T20:13:41.977Z,44.60
2018-09-13T20:16:10.611Z,37.57
2018-09-13T20:18:39.516Z,36.33
2018-09-13T20:21:08.164Z,37.77
2018-09-13T20:23:36.713Z,42.07
2018-09-13T20:26:05.322Z,41.03
2018-09-13T20:28:34.503Z,35.77
2018-09-13T20:31:03.095Z,37.60
2018-09-13T20:33:31.852Z,41.27
2018-09-13T20:36:00.520Z,37.37
2018-09-13T20:38:29.043Z,33.63
2018-09-13T20:40:57.561Z,39.43
2018-09-13T20:43:26.171Z,43.77
2018-09-13T20:45:54.757Z,42.33
2018-09-13T20:48:23.295Z,37.33
2018-09-13T20:50:51.829Z,34.67
2018-09-13T20:53:20.490Z,34.70
2018-09-13T20:55:49.336Z,35.20
2018-09-13T20:58:17.964Z,30.37
2018-09-13T21:00:46.597Z,33.27
2018-09-13T21:03:15.366Z,36.20
2018-09-13T21:05:43.884Z,33.40
2018-09-13T21:08:12.471Z,34.93
2018-09-13T21:10:42.481Z,32.27
2018-09-13T21:13:11.024Z,28.90
2018-09-13T21:15:39.773Z,27.87
2018-09-13T21:18:08.312Z,29.17
2018-09-13T21:20:36.868Z,29.73
2018-09-13T21:23:06.315Z,17.77
2018-09-13T21:25:35.608Z,17.13
2018-09-13T21:28:04.208Z,18.47
2018-09-13T21:30:33.745Z,17.50
2018-09-13T21:33:03.630Z,17.20
2018-09-13T21:35:32.211Z,17.00
2018-09-13T21:38:00.777Z,17.60
2018-09-13T21:40:29.333Z,19.40
2018-09-13T21:42:58.297Z,16.00
2018-09-13T21:45:26.888Z,15.73
2018-09-13T21:47:55.424Z,16.03
2018-09-13T21:50:23.946Z,22.37
2018-09-13T21:52:52.531Z,19.27
2018-09-13T21:55:21.343Z,20.03
2018-09-13T21:57:49.920Z,20.63
2018-09-13T22:00:18.570Z,19.23
2018-09-13T22:02:47.120Z,21.50
2018-09-13T22:05:15.768Z,22.47
2018-09-13T22:10:35.019Z,24.27
2018-09-13T22:13:03.569Z,19.47
2018-09-13T22:15:32.124Z,21.47
2018-09-13T22:18:00.672Z,18.77
2018-09-13T22:20:29.218Z,21.87
2018-09-13T22:22:57.795Z,25.53
2018-09-13T22:25:26.332Z,24.23
2018-09-13T22:27:54.881Z,21.27
2018-09-13T22:30:23.558Z,21.23
2018-09-13T22:32:52.106Z,18.27
2018-09-13T22:35:20.618Z,21.03
2018-09-13T22:37:49.139Z,16.03
2018-09-13T22:40:17.688Z,17.00
2018-09-13T22:42:46.216Z,17.17
2018-09-13T22:45:14.755Z,20.73
2018-09-13T22:47:43.293Z,18.23
2018-09-13T22:50:11.916Z,18.50
2018-09-13T22:52:40.423Z,20.00
2018-09-13T22:55:09.471Z,20.80
2018-09-13T22:57:38.041Z,18.73
2018-09-13T23:00:06.850Z,21.20
2018-09-13T23:02:40.766Z,20.93
2018-09-13T23:05:09.342Z,21.73
2018-09-13T23:07:37.857Z,24.00
2018-09-13T23:10:06.432Z,25.43
2018-09-13T23:12:36.111Z,20.27
2018-09-13T23:15:04.725Z,23.03
2018-09-13T23:17:33.324Z,22.40
2018-09-13T23:20:01.828Z,17.57
2018-09-13T23:22:30.337Z,18.17
2018-09-13T23:24:59.035Z,17.40
2018-09-13T23:27:27.560Z,18.67
2018-09-13T23:29:56.118Z,18.80
2018-09-13T23:32:24.876Z,17.40
2018-09-13T23:34:53.432Z,17.07
2018-09-13T23:37:22.342Z,17.47
2018-09-13T23:39:51.019Z,18.63
2018-09-13T23:42:19.435Z,22.33
2018-09-13T23:44:47.959Z,26.03
2018-09-13T23:47:16.486Z,18.97
2018-09-13T23:49:45.016Z,21.73
2018-09-13T23:52:13.590Z,23.03
2018-09-13T23:54:42.291Z,21.07
2018-09-13T23:57:10.846Z,26.17
2018-09-13T23:59:39.411Z,22.30
